sensor_id;sensor_type;location;lat;lon;timestamp;P1;durP1;ratioP1;P2;durP2;ratioP2
51224;SDS011;37298;42.688;23.312;2023-05-14T00:00:44;2.47;;;1.92;;
51224;SDS011;37298;42.688;23.312;2023-05-14T00:03:11;3.40;;;2.00;;
51224;SDS011;37298;42.688;23.312;2023-05-14T00:05:38;3.10;;;1.95;;
51224;SDS011;37298;42.688;23.312;2023-05-14T00:08:05;3.22;;;2.13;;
51224;SDS011;37298;42.688;23.312;2023-05-14T00:10:33;3.13;;;2.25;;
51224;SDS011;37298;42.688;23.312;2023-05-14T00:13:00;3.58;;;2.17;;
51224;SDS011;37298;42.688;23.312;2023-05-14T00:15:27;3.33;;;2.08;;
51224;SDS011;37298;42.688;23.312;2023-05-14T00:17:54;3.08;;;1.95;;
51224;SDS011;37298;42.688;23.312;2023-05-14T00:20:20;2.33;;;1.92;;
51224;SDS011;37298;42.688;23.312;2023-05-14T00:22:47;6.22;;;2.42;;
51224;SDS011;37298;42.688;23.312;2023-05-14T00:25:14;2.70;;;2.15;;
51224;SDS011;37298;42.688;23.312;2023-05-14T00:27:42;2.55;;;2.15;;
51224;SDS011;37298;42.688;23.312;2023-05-14T00:30:10;3.30;;;2.38;;
51224;SDS011;37298;42.688;23.312;2023-05-14T00:32:37;2.35;;;2.13;;
51224;SDS011;37298;42.688;23.312;2023-05-14T00:35:04;2.95;;;2.13;;
51224;SDS011;37298;42.688;23.312;2023-05-14T00:37:31;3.47;;;2.00;;
51224;SDS011;37298;42.688;23.312;2023-05-14T00:39:58;3.35;;;2.50;;
51224;SDS011;37298;42.688;23.312;2023-05-14T00:42:25;3.88;;;2.35;;
51224;SDS011;37298;42.688;23.312;2023-05-14T00:44:53;2.70;;;2.15;;
51224;SDS011;37298;42.688;23.312;2023-05-14T00:47:20;4.35;;;2.22;;
51224;SDS011;37298;42.688;23.312;2023-05-14T00:49:47;2.85;;;2.20;;
51224;SDS011;37298;42.688;23.312;2023-05-14T00:52:14;3.28;;;2.35;;
51224;SDS011;37298;42.688;23.312;2023-05-14T00:54:42;4.13;;;2.22;;
51224;SDS011;37298;42.688;23.312;2023-05-14T00:57:08;3.05;;;1.98;;
51224;SDS011;37298;42.688;23.312;2023-05-14T00:59:55;2.83;;;2.10;;
51224;SDS011;37298;42.688;23.312;2023-05-14T01:02:22;2.28;;;2.08;;
51224;SDS011;37298;42.688;23.312;2023-05-14T01:04:49;4.25;;;2.20;;
51224;SDS011;37298;42.688;23.312;2023-05-14T01:07:19;3.40;;;2.53;;
51224;SDS011;37298;42.688;23.312;2023-05-14T01:09:49;1.90;;;1.67;;
51224;SDS011;37298;42.688;23.312;2023-05-14T01:14:46;3.65;;;2.50;;
51224;SDS011;37298;42.688;23.312;2023-05-14T01:17:18;2.55;;;1.88;;
51224;SDS011;37298;42.688;23.312;2023-05-14T01:19:47;3.03;;;1.90;;
51224;SDS011;37298;42.688;23.312;2023-05-14T01:22:15;2.88;;;2.17;;
51224;SDS011;37298;42.688;23.312;2023-05-14T01:24:42;3.10;;;2.17;;
51224;SDS011;37298;42.688;23.312;2023-05-14T01:27:11;2.80;;;2.13;;
51224;SDS011;37298;42.688;23.312;2023-05-14T01:29:41;3.35;;;2.17;;
51224;SDS011;37298;42.688;23.312;2023-05-14T01:32:08;4.80;;;2.00;;
51224;SDS011;37298;42.688;23.312;2023-05-14T01:34:35;3.33;;;2.05;;
51224;SDS011;37298;42.688;23.312;2023-05-14T01:37:03;2.70;;;2.07;;
51224;SDS011;37298;42.688;23.312;2023-05-14T01:39:32;4.78;;;2.25;;
51224;SDS011;37298;42.688;23.312;2023-05-14T01:42:02;2.58;;;1.90;;
51224;SDS011;37298;42.688;23.312;2023-05-14T01:44:29;2.55;;;1.88;;
51224;SDS011;37298;42.688;23.312;2023-05-14T01:46:57;3.05;;;2.33;;
51224;SDS011;37298;42.688;23.312;2023-05-14T01:49:24;1.92;;;1.70;;
51224;SDS011;37298;42.688;23.312;2023-05-14T01:51:51;3.55;;;1.90;;
51224;SDS011;37298;42.688;23.312;2023-05-14T01:54:17;3.33;;;2.00;;
51224;SDS011;37298;42.688;23.312;2023-05-14T01:56:46;2.15;;;1.70;;
51224;SDS011;37298;42.688;23.312;2023-05-14T01:59:13;3.78;;;2.00;;
51224;SDS011;37298;42.688;23.312;2023-05-14T02:01:40;2.85;;;1.80;;
51224;SDS011;37298;42.688;23.312;2023-05-14T02:04:07;2.15;;;1.77;;
51224;SDS011;37298;42.688;23.312;2023-05-14T02:06:34;2.10;;;1.83;;
51224;SDS011;37298;42.688;23.312;2023-05-14T02:09:01;2.60;;;2.35;;
51224;SDS011;37298;42.688;23.312;2023-05-14T02:11:28;3.47;;;2.00;;
51224;SDS011;37298;42.688;23.312;2023-05-14T02:13:56;2.83;;;1.95;;
51224;SDS011;37298;42.688;23.312;2023-05-14T02:16:23;4.43;;;2.15;;
51224;SDS011;37298;42.688;23.312;2023-05-14T02:18:50;2.70;;;1.92;;
51224;SDS011;37298;42.688;23.312;2023-05-14T02:21:17;2.50;;;1.90;;
51224;SDS011;37298;42.688;23.312;2023-05-14T02:23:44;3.28;;;1.83;;
51224;SDS011;37298;42.688;23.312;2023-05-14T02:26:12;2.88;;;2.22;;
51224;SDS011;37298;42.688;23.312;2023-05-14T02:28:39;3.83;;;2.40;;
51224;SDS011;37298;42.688;23.312;2023-05-14T02:31:07;2.55;;;2.10;;
51224;SDS011;37298;42.688;23.312;2023-05-14T02:33:34;3.25;;;2.40;;
51224;SDS011;37298;42.688;23.312;2023-05-14T02:36:01;2.90;;;2.00;;
51224;SDS011;37298;42.688;23.312;2023-05-14T02:38:28;2.83;;;1.95;;
51224;SDS011;37298;42.688;23.312;2023-05-14T02:40:55;3.88;;;2.45;;
51224;SDS011;37298;42.688;23.312;2023-05-14T02:43:22;2.67;;;2.20;;
51224;SDS011;37298;42.688;23.312;2023-05-14T02:45:49;3.40;;;1.95;;
51224;SDS011;37298;42.688;23.312;2023-05-14T02:48:17;2.30;;;2.00;;
51224;SDS011;37298;42.688;23.312;2023-05-14T02:50:44;4.35;;;2.50;;
51224;SDS011;37298;42.688;23.312;2023-05-14T02:53:13;2.28;;;1.98;;
51224;SDS011;37298;42.688;23.312;2023-05-14T02:55:40;2.47;;;1.98;;
51224;SDS011;37298;42.688;23.312;2023-05-14T02:58:06;2.42;;;1.98;;
51224;SDS011;37298;42.688;23.312;2023-05-14T03:00:33;3.15;;;2.05;;
51224;SDS011;37298;42.688;23.312;2023-05-14T03:03:00;1.70;;;1.60;;
51224;SDS011;37298;42.688;23.312;2023-05-14T03:05:28;2.33;;;2.13;;
51224;SDS011;37298;42.688;23.312;2023-05-14T03:07:55;3.15;;;2.05;;
51224;SDS011;37298;42.688;23.312;2023-05-14T03:10:22;2.40;;;1.92;;
51224;SDS011;37298;42.688;23.312;2023-05-14T03:12:49;3.22;;;1.88;;
51224;SDS011;37298;42.688;23.312;2023-05-14T03:15:16;4.07;;;2.15;;
51224;SDS011;37298;42.688;23.312;2023-05-14T03:17:42;2.45;;;1.85;;
51224;SDS011;37298;42.688;23.312;2023-05-14T03:20:10;1.98;;;1.83;;
51224;SDS011;37298;42.688;23.312;2023-05-14T03:22:39;3.50;;;2.30;;
51224;SDS011;37298;42.688;23.312;2023-05-14T03:25:06;2.00;;;1.75;;
51224;SDS011;37298;42.688;23.312;2023-05-14T03:27:34;3.08;;;2.47;;
51224;SDS011;37298;42.688;23.312;2023-05-14T03:30:01;4.03;;;1.70;;
51224;SDS011;37298;42.688;23.312;2023-05-14T03:32:28;4.10;;;2.75;;
51224;SDS011;37298;42.688;23.312;2023-05-14T03:34:55;2.47;;;1.65;;
51224;SDS011;37298;42.688;23.312;2023-05-14T03:37:21;3.60;;;2.40;;
51224;SDS011;37298;42.688;23.312;2023-05-14T03:39:49;3.00;;;2.25;;
51224;SDS011;37298;42.688;23.312;2023-05-14T03:42:16;3.38;;;2.10;;
51224;SDS011;37298;42.688;23.312;2023-05-14T03:44:43;2.72;;;1.90;;
51224;SDS011;37298;42.688;23.312;2023-05-14T03:47:10;2.38;;;2.10;;
51224;SDS011;37298;42.688;23.312;2023-05-14T03:49:37;2.83;;;2.20;;
51224;SDS011;37298;42.688;23.312;2023-05-14T03:52:06;2.53;;;1.95;;
51224;SDS011;37298;42.688;23.312;2023-05-14T03:54:33;2.17;;;1.97;;
51224;SDS011;37298;42.688;23.312;2023-05-14T03:57:02;2.28;;;2.00;;
51224;SDS011;37298;42.688;23.312;2023-05-14T03:59:28;2.67;;;2.33;;
51224;SDS011;37298;42.688;23.312;2023-05-14T04:01:55;7.03;;;2.30;;
51224;SDS011;37298;42.688;23.312;2023-05-14T04:04:24;2.25;;;2.05;;
51224;SDS011;37298;42.688;23.312;2023-05-14T04:06:51;2.30;;;1.80;;
51224;SDS011;37298;42.688;23.312;2023-05-14T04:09:17;2.13;;;1.92;;
51224;SDS011;37298;42.688;23.312;2023-05-14T04:11:44;2.55;;;1.80;;
51224;SDS011;37298;42.688;23.312;2023-05-14T04:14:13;6.20;;;2.10;;
51224;SDS011;37298;42.688;23.312;2023-05-14T04:16:41;4.38;;;1.55;;
51224;SDS011;37298;42.688;23.312;2023-05-14T04:19:07;2.47;;;1.92;;
51224;SDS011;37298;42.688;23.312;2023-05-14T04:21:34;4.18;;;2.00;;
51224;SDS011;37298;42.688;23.312;2023-05-14T04:24:01;3.22;;;2.20;;
51224;SDS011;37298;42.688;23.312;2023-05-14T04:26:28;1.95;;;1.75;;
51224;SDS011;37298;42.688;23.312;2023-05-14T04:28:55;2.90;;;1.75;;
51224;SDS011;37298;42.688;23.312;2023-05-14T04:31:24;2.45;;;2.00;;
51224;SDS011;37298;42.688;23.312;2023-05-14T04:33:51;3.83;;;1.85;;
51224;SDS011;37298;42.688;23.312;2023-05-14T04:36:18;2.17;;;1.98;;
51224;SDS011;37298;42.688;23.312;2023-05-14T04:38:45;3.30;;;2.05;;
51224;SDS011;37298;42.688;23.312;2023-05-14T04:41:12;3.17;;;1.65;;
51224;SDS011;37298;42.688;23.312;2023-05-14T04:43:38;4.15;;;2.08;;
51224;SDS011;37298;42.688;23.312;2023-05-14T04:46:05;2.65;;;1.92;;
51224;SDS011;37298;42.688;23.312;2023-05-14T04:48:33;3.22;;;1.73;;
51224;SDS011;37298;42.688;23.312;2023-05-14T04:51:00;2.55;;;2.17;;
51224;SDS011;37298;42.688;23.312;2023-05-14T04:53:27;3.60;;;2.28;;
51224;SDS011;37298;42.688;23.312;2023-05-14T04:55:54;3.53;;;2.08;;
51224;SDS011;37298;42.688;23.312;2023-05-14T04:58:21;2.20;;;1.90;;
51224;SDS011;37298;42.688;23.312;2023-05-14T05:00:48;3.30;;;1.98;;
51224;SDS011;37298;42.688;23.312;2023-05-14T05:03:18;2.42;;;1.83;;
51224;SDS011;37298;42.688;23.312;2023-05-14T05:05:46;3.35;;;2.00;;
51224;SDS011;37298;42.688;23.312;2023-05-14T05:08:13;2.85;;;2.30;;
51224;SDS011;37298;42.688;23.312;2023-05-14T05:10:40;4.10;;;2.50;;
51224;SDS011;37298;42.688;23.312;2023-05-14T05:13:06;2.58;;;1.90;;
51224;SDS011;37298;42.688;23.312;2023-05-14T05:15:33;2.70;;;2.33;;
51224;SDS011;37298;42.688;23.312;2023-05-14T05:18:00;4.20;;;2.13;;
51224;SDS011;37298;42.688;23.312;2023-05-14T05:20:27;3.03;;;2.10;;
51224;SDS011;37298;42.688;23.312;2023-05-14T05:22:55;5.07;;;2.58;;
51224;SDS011;37298;42.688;23.312;2023-05-14T05:25:22;3.58;;;2.58;;
51224;SDS011;37298;42.688;23.312;2023-05-14T05:27:49;3.80;;;2.67;;
51224;SDS011;37298;42.688;23.312;2023-05-14T05:30:16;4.03;;;2.20;;
51224;SDS011;37298;42.688;23.312;2023-05-14T05:32:43;4.25;;;2.72;;
51224;SDS011;37298;42.688;23.312;2023-05-14T05:35:10;4.35;;;2.65;;
51224;SDS011;37298;42.688;23.312;2023-05-14T05:37:37;7.70;;;3.00;;
51224;SDS011;37298;42.688;23.312;2023-05-14T05:40:05;3.13;;;2.83;;
51224;SDS011;37298;42.688;23.312;2023-05-14T05:42:33;3.90;;;2.85;;
51224;SDS011;37298;42.688;23.312;2023-05-14T05:45:00;4.93;;;2.88;;
51224;SDS011;37298;42.688;23.312;2023-05-14T05:47:27;3.83;;;2.90;;
51224;SDS011;37298;42.688;23.312;2023-05-14T05:49:54;4.65;;;2.80;;
51224;SDS011;37298;42.688;23.312;2023-05-14T05:52:21;4.50;;;3.10;;
51224;SDS011;37298;42.688;23.312;2023-05-14T05:54:48;3.63;;;2.92;;
51224;SDS011;37298;42.688;23.312;2023-05-14T05:57:16;4.60;;;3.08;;
51224;SDS011;37298;42.688;23.312;2023-05-14T05:59:43;3.00;;;2.70;;
51224;SDS011;37298;42.688;23.312;2023-05-14T06:02:10;5.45;;;3.03;;
51224;SDS011;37298;42.688;23.312;2023-05-14T06:04:37;5.68;;;3.20;;
51224;SDS011;37298;42.688;23.312;2023-05-14T06:07:04;4.97;;;2.97;;
51224;SDS011;37298;42.688;23.312;2023-05-14T06:09:31;5.28;;;2.70;;
51224;SDS011;37298;42.688;23.312;2023-05-14T06:11:57;5.15;;;3.28;;
51224;SDS011;37298;42.688;23.312;2023-05-14T06:14:26;4.63;;;2.92;;
51224;SDS011;37298;42.688;23.312;2023-05-14T06:16:53;5.55;;;3.38;;
51224;SDS011;37298;42.688;23.312;2023-05-14T06:19:19;4.45;;;3.55;;
51224;SDS011;37298;42.688;23.312;2023-05-14T06:21:46;4.22;;;3.15;;
51224;SDS011;37298;42.688;23.312;2023-05-14T06:24:13;5.63;;;3.60;;
51224;SDS011;37298;42.688;23.312;2023-05-14T06:26:40;4.38;;;3.20;;
51224;SDS011;37298;42.688;23.312;2023-05-14T06:29:07;4.82;;;3.65;;
51224;SDS011;37298;42.688;23.312;2023-05-14T06:31:35;4.07;;;3.00;;
51224;SDS011;37298;42.688;23.312;2023-05-14T06:34:13;3.80;;;2.55;;
51224;SDS011;37298;42.688;23.312;2023-05-14T06:36:40;4.53;;;3.13;;
51224;SDS011;37298;42.688;23.312;2023-05-14T06:39:06;5.43;;;3.33;;
51224;SDS011;37298;42.688;23.312;2023-05-14T06:41:34;4.75;;;3.13;;
51224;SDS011;37298;42.688;23.312;2023-05-14T06:44:01;3.60;;;2.67;;
51224;SDS011;37298;42.688;23.312;2023-05-14T06:46:28;6.38;;;3.08;;
51224;SDS011;37298;42.688;23.312;2023-05-14T06:48:56;5.00;;;3.30;;
51224;SDS011;37298;42.688;23.312;2023-05-14T06:51:23;3.78;;;3.13;;
51224;SDS011;37298;42.688;23.312;2023-05-14T06:53:49;5.78;;;3.30;;
51224;SDS011;37298;42.688;23.312;2023-05-14T06:56:18;6.38;;;3.45;;
51224;SDS011;37298;42.688;23.312;2023-05-14T06:58:46;4.10;;;3.43;;
51224;SDS011;37298;42.688;23.312;2023-05-14T07:01:13;5.32;;;3.20;;
51224;SDS011;37298;42.688;23.312;2023-05-14T07:03:39;5.60;;;3.15;;
51224;SDS011;37298;42.688;23.312;2023-05-14T07:06:08;3.58;;;2.85;;
51224;SDS011;37298;42.688;23.312;2023-05-14T07:08:34;6.40;;;3.55;;
51224;SDS011;37298;42.688;23.312;2023-05-14T07:11:01;4.88;;;3.30;;
51224;SDS011;37298;42.688;23.312;2023-05-14T07:13:28;6.03;;;3.63;;
51224;SDS011;37298;42.688;23.312;2023-05-14T07:15:55;4.85;;;3.30;;
51224;SDS011;37298;42.688;23.312;2023-05-14T07:18:22;4.57;;;3.30;;
51224;SDS011;37298;42.688;23.312;2023-05-14T07:20:49;8.30;;;3.60;;
51224;SDS011;37298;42.688;23.312;2023-05-14T07:23:17;5.18;;;3.13;;
51224;SDS011;37298;42.688;23.312;2023-05-14T07:25:44;5.20;;;3.63;;
51224;SDS011;37298;42.688;23.312;2023-05-14T07:28:11;11.35;;;5.28;;
51224;SDS011;37298;42.688;23.312;2023-05-14T07:30:38;11.85;;;5.38;;
51224;SDS011;37298;42.688;23.312;2023-05-14T07:33:04;9.60;;;4.80;;
51224;SDS011;37298;42.688;23.312;2023-05-14T07:35:31;10.02;;;5.18;;
51224;SDS011;37298;42.688;23.312;2023-05-14T07:37:58;9.27;;;4.75;;
51224;SDS011;37298;42.688;23.312;2023-05-14T07:40:26;5.50;;;3.88;;
51224;SDS011;37298;42.688;23.312;2023-05-14T07:42:53;6.07;;;3.85;;
51224;SDS011;37298;42.688;23.312;2023-05-14T07:45:20;6.55;;;4.20;;
51224;SDS011;37298;42.688;23.312;2023-05-14T07:47:47;6.18;;;4.28;;
51224;SDS011;37298;42.688;23.312;2023-05-14T07:50:16;5.25;;;3.65;;
51224;SDS011;37298;42.688;23.312;2023-05-14T07:52:43;8.93;;;4.15;;
51224;SDS011;37298;42.688;23.312;2023-05-14T07:55:09;6.47;;;3.78;;
51224;SDS011;37298;42.688;23.312;2023-05-14T07:57:38;5.20;;;3.83;;
51224;SDS011;37298;42.688;23.312;2023-05-14T08:00:05;5.32;;;3.58;;
51224;SDS011;37298;42.688;23.312;2023-05-14T08:02:39;5.85;;;4.07;;
51224;SDS011;37298;42.688;23.312;2023-05-14T08:05:07;7.07;;;3.67;;
51224;SDS011;37298;42.688;23.312;2023-05-14T08:07:34;6.00;;;3.92;;
51224;SDS011;37298;42.688;23.312;2023-05-14T08:10:01;5.38;;;3.70;;
51224;SDS011;37298;42.688;23.312;2023-05-14T08:12:29;5.38;;;3.95;;
51224;SDS011;37298;42.688;23.312;2023-05-14T08:14:57;4.32;;;3.65;;
51224;SDS011;37298;42.688;23.312;2023-05-14T08:17:24;4.95;;;3.72;;
51224;SDS011;37298;42.688;23.312;2023-05-14T08:19:51;4.90;;;3.63;;
51224;SDS011;37298;42.688;23.312;2023-05-14T08:22:18;7.63;;;3.40;;
51224;SDS011;37298;42.688;23.312;2023-05-14T08:24:45;5.38;;;3.95;;
51224;SDS011;37298;42.688;23.312;2023-05-14T08:27:11;6.10;;;4.05;;
51224;SDS011;37298;42.688;23.312;2023-05-14T08:29:38;5.78;;;3.33;;
51224;SDS011;37298;42.688;23.312;2023-05-14T08:32:07;4.97;;;3.65;;
51224;SDS011;37298;42.688;23.312;2023-05-14T08:34:34;5.65;;;3.63;;
51224;SDS011;37298;42.688;23.312;2023-05-14T08:37:01;7.05;;;4.00;;
51224;SDS011;37298;42.688;23.312;2023-05-14T08:39:28;5.30;;;3.80;;
51224;SDS011;37298;42.688;23.312;2023-05-14T08:41:55;8.77;;;4.00;;
51224;SDS011;37298;42.688;23.312;2023-05-14T08:44:24;8.18;;;4.10;;
51224;SDS011;37298;42.688;23.312;2023-05-14T08:46:53;6.07;;;3.53;;
51224;SDS011;37298;42.688;23.312;2023-05-14T08:49:24;6.25;;;3.92;;
51224;SDS011;37298;42.688;23.312;2023-05-14T08:51:54;6.47;;;3.80;;
51224;SDS011;37298;42.688;23.312;2023-05-14T08:54:21;4.47;;;2.92;;
51224;SDS011;37298;42.688;23.312;2023-05-14T08:59:17;5.65;;;3.88;;
51224;SDS011;37298;42.688;23.312;2023-05-14T09:01:45;5.55;;;3.72;;
51224;SDS011;37298;42.688;23.312;2023-05-14T09:06:41;8.95;;;3.80;;
51224;SDS011;37298;42.688;23.312;2023-05-14T09:11:39;6.43;;;3.60;;
51224;SDS011;37298;42.688;23.312;2023-05-14T09:14:06;7.45;;;4.53;;
51224;SDS011;37298;42.688;23.312;2023-05-14T09:16:32;6.72;;;4.20;;
51224;SDS011;37298;42.688;23.312;2023-05-14T09:19:01;5.50;;;4.03;;
51224;SDS011;37298;42.688;23.312;2023-05-14T09:21:28;6.03;;;3.97;;
51224;SDS011;37298;42.688;23.312;2023-05-14T09:23:57;10.60;;;4.40;;
51224;SDS011;37298;42.688;23.312;2023-05-14T09:26:24;5.05;;;3.72;;
51224;SDS011;37298;42.688;23.312;2023-05-14T09:28:52;5.72;;;3.88;;
51224;SDS011;37298;42.688;23.312;2023-05-14T09:31:19;5.07;;;3.60;;
51224;SDS011;37298;42.688;23.312;2023-05-14T09:33:48;6.10;;;4.03;;
51224;SDS011;37298;42.688;23.312;2023-05-14T09:36:15;7.47;;;4.70;;
51224;SDS011;37298;42.688;23.312;2023-05-14T09:38:42;11.32;;;4.20;;
51224;SDS011;37298;42.688;23.312;2023-05-14T09:41:10;4.38;;;3.65;;
51224;SDS011;37298;42.688;23.312;2023-05-14T09:43:37;5.25;;;4.07;;
51224;SDS011;37298;42.688;23.312;2023-05-14T09:46:04;5.82;;;3.92;;
51224;SDS011;37298;42.688;23.312;2023-05-14T09:48:31;5.93;;;3.80;;
51224;SDS011;37298;42.688;23.312;2023-05-14T09:50:58;5.40;;;3.95;;
51224;SDS011;37298;42.688;23.312;2023-05-14T09:53:24;9.55;;;4.82;;
51224;SDS011;37298;42.688;23.312;2023-05-14T09:55:51;6.78;;;4.30;;
51224;SDS011;37298;42.688;23.312;2023-05-14T09:58:19;6.20;;;4.13;;
51224;SDS011;37298;42.688;23.312;2023-05-14T10:00:46;4.85;;;4.32;;
51224;SDS011;37298;42.688;23.312;2023-05-14T10:03:14;6.05;;;4.03;;
51224;SDS011;37298;42.688;23.312;2023-05-14T10:05:44;6.35;;;4.15;;
51224;SDS011;37298;42.688;23.312;2023-05-14T10:08:13;8.85;;;4.25;;
51224;SDS011;37298;42.688;23.312;2023-05-14T10:10:44;5.90;;;4.43;;
51224;SDS011;37298;42.688;23.312;2023-05-14T10:13:12;5.32;;;4.18;;
51224;SDS011;37298;42.688;23.312;2023-05-14T10:15:42;6.07;;;4.40;;
51224;SDS011;37298;42.688;23.312;2023-05-14T10:18:15;5.22;;;4.00;;
51224;SDS011;37298;42.688;23.312;2023-05-14T10:20:43;6.63;;;4.57;;
51224;SDS011;37298;42.688;23.312;2023-05-14T10:23:10;6.40;;;4.93;;
51224;SDS011;37298;42.688;23.312;2023-05-14T10:25:38;7.57;;;4.65;;
51224;SDS011;37298;42.688;23.312;2023-05-14T10:28:05;9.90;;;4.68;;
51224;SDS011;37298;42.688;23.312;2023-05-14T10:30:32;7.22;;;4.95;;
51224;SDS011;37298;42.688;23.312;2023-05-14T10:33:07;6.57;;;4.55;;
51224;SDS011;37298;42.688;23.312;2023-05-14T10:35:49;7.05;;;5.13;;
51224;SDS011;37298;42.688;23.312;2023-05-14T10:38:16;7.25;;;5.18;;
51224;SDS011;37298;42.688;23.312;2023-05-14T10:40:43;5.78;;;4.30;;
51224;SDS011;37298;42.688;23.312;2023-05-14T10:43:10;5.63;;;4.20;;
51224;SDS011;37298;42.688;23.312;2023-05-14T10:45:37;7.18;;;4.45;;
51224;SDS011;37298;42.688;23.312;2023-05-14T10:48:07;7.55;;;5.07;;
51224;SDS011;37298;42.688;23.312;2023-05-14T10:50:37;5.28;;;4.30;;
51224;SDS011;37298;42.688;23.312;2023-05-14T10:53:04;7.50;;;4.78;;
51224;SDS011;37298;42.688;23.312;2023-05-14T10:55:36;7.43;;;4.88;;
51224;SDS011;37298;42.688;23.312;2023-05-14T10:58:03;5.80;;;4.55;;
51224;SDS011;37298;42.688;23.312;2023-05-14T11:00:32;7.35;;;4.75;;
51224;SDS011;37298;42.688;23.312;2023-05-14T11:02:59;7.80;;;4.47;;
51224;SDS011;37298;42.688;23.312;2023-05-14T11:05:27;6.07;;;4.00;;
51224;SDS011;37298;42.688;23.312;2023-05-14T11:07:54;10.02;;;4.97;;
51224;SDS011;37298;42.688;23.312;2023-05-14T11:10:22;7.03;;;5.05;;
51224;SDS011;37298;42.688;23.312;2023-05-14T11:12:50;7.38;;;4.28;;
51224;SDS011;37298;42.688;23.312;2023-05-14T11:15:20;5.88;;;3.67;;
51224;SDS011;37298;42.688;23.312;2023-05-14T11:17:48;4.10;;;3.67;;
51224;SDS011;37298;42.688;23.312;2023-05-14T11:20:15;6.00;;;4.40;;
51224;SDS011;37298;42.688;23.312;2023-05-14T11:22:44;5.80;;;4.30;;
51224;SDS011;37298;42.688;23.312;2023-05-14T11:25:11;7.32;;;4.65;;
51224;SDS011;37298;42.688;23.312;2023-05-14T11:27:39;5.22;;;4.20;;
51224;SDS011;37298;42.688;23.312;2023-05-14T11:30:10;6.90;;;4.57;;
51224;SDS011;37298;42.688;23.312;2023-05-14T11:32:37;6.88;;;4.97;;
51224;SDS011;37298;42.688;23.312;2023-05-14T11:35:05;6.97;;;4.22;;
51224;SDS011;37298;42.688;23.312;2023-05-14T11:37:32;6.82;;;4.10;;
51224;SDS011;37298;42.688;23.312;2023-05-14T11:40:00;5.25;;;4.35;;
51224;SDS011;37298;42.688;23.312;2023-05-14T11:42:30;6.70;;;4.38;;
51224;SDS011;37298;42.688;23.312;2023-05-14T11:44:57;6.65;;;4.97;;
51224;SDS011;37298;42.688;23.312;2023-05-14T11:47:24;5.00;;;3.92;;
51224;SDS011;37298;42.688;23.312;2023-05-14T11:49:51;4.80;;;3.95;;
51224;SDS011;37298;42.688;23.312;2023-05-14T11:52:19;7.10;;;4.00;;
51224;SDS011;37298;42.688;23.312;2023-05-14T11:54:46;6.35;;;4.40;;
51224;SDS011;37298;42.688;23.312;2023-05-14T11:57:16;5.80;;;4.10;;
51224;SDS011;37298;42.688;23.312;2023-05-14T11:59:43;7.18;;;4.10;;
51224;SDS011;37298;42.688;23.312;2023-05-14T12:02:11;7.18;;;4.00;;
51224;SDS011;37298;42.688;23.312;2023-05-14T12:04:39;4.93;;;3.85;;
51224;SDS011;37298;42.688;23.312;2023-05-14T12:07:07;6.75;;;4.03;;
51224;SDS011;37298;42.688;23.312;2023-05-14T12:09:35;4.95;;;3.92;;
51224;SDS011;37298;42.688;23.312;2023-05-14T12:12:06;7.90;;;3.83;;
51224;SDS011;37298;42.688;23.312;2023-05-14T12:14:35;4.80;;;3.97;;
51224;SDS011;37298;42.688;23.312;2023-05-14T12:17:02;5.68;;;4.03;;
51224;SDS011;37298;42.688;23.312;2023-05-14T12:19:30;9.18;;;5.05;;
51224;SDS011;37298;42.688;23.312;2023-05-14T12:21:59;5.03;;;3.70;;
51224;SDS011;37298;42.688;23.312;2023-05-14T12:24:26;4.97;;;3.85;;
51224;SDS011;37298;42.688;23.312;2023-05-14T12:26:54;5.32;;;4.15;;
51224;SDS011;37298;42.688;23.312;2023-05-14T12:29:21;6.45;;;4.10;;
51224;SDS011;37298;42.688;23.312;2023-05-14T12:31:55;4.72;;;3.50;;
51224;SDS011;37298;42.688;23.312;2023-05-14T12:34:22;4.93;;;3.42;;
51224;SDS011;37298;42.688;23.312;2023-05-14T12:36:49;5.15;;;4.05;;
51224;SDS011;37298;42.688;23.312;2023-05-14T12:39:16;5.10;;;3.67;;
51224;SDS011;37298;42.688;23.312;2023-05-14T12:41:43;6.95;;;4.28;;
51224;SDS011;37298;42.688;23.312;2023-05-14T12:44:10;5.43;;;3.72;;
51224;SDS011;37298;42.688;23.312;2023-05-14T12:46:36;6.68;;;4.38;;
51224;SDS011;37298;42.688;23.312;2023-05-14T12:49:05;5.82;;;4.82;;
51224;SDS011;37298;42.688;23.312;2023-05-14T12:51:32;5.80;;;4.03;;
51224;SDS011;37298;42.688;23.312;2023-05-14T12:53:59;5.25;;;3.85;;
51224;SDS011;37298;42.688;23.312;2023-05-14T12:56:26;7.72;;;4.68;;
51224;SDS011;37298;42.688;23.312;2023-05-14T12:58:55;7.03;;;4.82;;
51224;SDS011;37298;42.688;23.312;2023-05-14T13:01:22;6.60;;;4.65;;
51224;SDS011;37298;42.688;23.312;2023-05-14T13:03:49;14.80;;;5.70;;
51224;SDS011;37298;42.688;23.312;2023-05-14T13:06:17;8.32;;;4.78;;
51224;SDS011;37298;42.688;23.312;2023-05-14T13:08:44;8.23;;;4.90;;
51224;SDS011;37298;42.688;23.312;2023-05-14T13:11:11;10.65;;;4.90;;
51224;SDS011;37298;42.688;23.312;2023-05-14T13:13:38;8.38;;;5.00;;
51224;SDS011;37298;42.688;23.312;2023-05-14T13:16:05;8.02;;;5.70;;
51224;SDS011;37298;42.688;23.312;2023-05-14T13:18:32;8.10;;;5.00;;
51224;SDS011;37298;42.688;23.312;2023-05-14T13:20:59;7.95;;;6.03;;
51224;SDS011;37298;42.688;23.312;2023-05-14T13:23:30;8.40;;;5.22;;
51224;SDS011;37298;42.688;23.312;2023-05-14T13:25:56;8.77;;;5.43;;
51224;SDS011;37298;42.688;23.312;2023-05-14T13:28:23;8.43;;;5.63;;
51224;SDS011;37298;42.688;23.312;2023-05-14T13:31:04;10.40;;;5.97;;
51224;SDS011;37298;42.688;23.312;2023-05-14T13:33:32;7.30;;;5.50;;
51224;SDS011;37298;42.688;23.312;2023-05-14T13:35:58;10.27;;;6.30;;
51224;SDS011;37298;42.688;23.312;2023-05-14T13:38:25;7.90;;;5.93;;
51224;SDS011;37298;42.688;23.312;2023-05-14T13:40:54;10.40;;;6.63;;
51224;SDS011;37298;42.688;23.312;2023-05-14T13:43:21;11.05;;;6.78;;
51224;SDS011;37298;42.688;23.312;2023-05-14T13:45:48;14.02;;;6.90;;
51224;SDS011;37298;42.688;23.312;2023-05-14T13:48:15;8.40;;;6.05;;
51224;SDS011;37298;42.688;23.312;2023-05-14T13:50:42;10.63;;;6.43;;
51224;SDS011;37298;42.688;23.312;2023-05-14T13:53:09;8.68;;;5.68;;
51224;SDS011;37298;42.688;23.312;2023-05-14T13:55:36;12.00;;;7.22;;
51224;SDS011;37298;42.688;23.312;2023-05-14T13:58:04;10.95;;;6.63;;
51224;SDS011;37298;42.688;23.312;2023-05-14T14:00:31;11.93;;;7.55;;
51224;SDS011;37298;42.688;23.312;2023-05-14T14:02:58;14.32;;;7.32;;
51224;SDS011;37298;42.688;23.312;2023-05-14T14:05:25;11.73;;;8.07;;
51224;SDS011;37298;42.688;23.312;2023-05-14T14:07:54;10.02;;;7.10;;
51224;SDS011;37298;42.688;23.312;2023-05-14T14:10:20;11.38;;;7.43;;
51224;SDS011;37298;42.688;23.312;2023-05-14T14:12:47;11.18;;;6.40;;
51224;SDS011;37298;42.688;23.312;2023-05-14T14:15:16;11.10;;;7.45;;
51224;SDS011;37298;42.688;23.312;2023-05-14T14:17:43;10.63;;;7.65;;
51224;SDS011;37298;42.688;23.312;2023-05-14T14:20:10;14.00;;;8.50;;
51224;SDS011;37298;42.688;23.312;2023-05-14T14:22:37;12.32;;;7.70;;
51224;SDS011;37298;42.688;23.312;2023-05-14T14:25:04;11.77;;;7.85;;
51224;SDS011;37298;42.688;23.312;2023-05-14T14:27:32;10.98;;;7.97;;
51224;SDS011;37298;42.688;23.312;2023-05-14T14:30:03;12.52;;;7.22;;
51224;SDS011;37298;42.688;23.312;2023-05-14T14:32:32;10.63;;;7.22;;
51224;SDS011;37298;42.688;23.312;2023-05-14T14:34:58;12.90;;;7.45;;
51224;SDS011;37298;42.688;23.312;2023-05-14T14:37:25;11.07;;;7.63;;
51224;SDS011;37298;42.688;23.312;2023-05-14T14:39:53;13.30;;;7.43;;
51224;SDS011;37298;42.688;23.312;2023-05-14T14:42:19;10.57;;;7.55;;
51224;SDS011;37298;42.688;23.312;2023-05-14T14:44:46;12.82;;;7.10;;